createdAt,value
2018-02-08T00:00:35.427Z,-0.7
2018-02-08T00:01:37.128Z,-0.8
2018-02-08T00:02:38.844Z,-0.7
2018-02-08T00:03:40.530Z,-0.8
2018-02-08T00:04:42.275Z,-0.7
2018-02-08T00:05:43.974Z,-0.7
2018-02-08T00:06:45.667Z,-0.6
2018-02-08T00:07:47.369Z,-0.7
2018-02-08T00:08:49.076Z,-0.7
2018-02-08T00:09:50.810Z,-0.7
2018-02-08T00:10:52.544Z,-0.8
2018-02-08T00:11:54.317Z,-0.8
2018-02-08T00:12:56.116Z,-0.8
2018-02-08T00:13:57.859Z,-0.8
2018-02-08T00:14:59.543Z,-0.7
2018-02-08T00:16:01.234Z,-0.7
2018-02-08T00:17:02.989Z,-0.8
2018-02-08T00:18:04.670Z,-0.7
2018-02-08T00:19:06.334Z,-0.8
2018-02-08T00:20:08.034Z,-0.7
2018-02-08T00:21:09.705Z,-0.7
2018-02-08T00:22:11.414Z,-0.7
2018-02-08T00:23:13.107Z,-0.8
2018-02-08T00:24:14.868Z,-0.8
2018-02-08T00:25:16.537Z,-0.7
2018-02-08T00:26:18.208Z,-0.8
2018-02-08T00:27:19.924Z,-0.8
2018-02-08T00:28:21.646Z,-0.9
2018-02-08T00:29:23.377Z,-0.8
2018-02-08T00:30:25.046Z,-0.7
2018-02-08T00:31:26.802Z,-0.7
2018-02-08T00:32:28.486Z,-0.7
2018-02-08T00:33:30.197Z,-0.7
2018-02-08T00:34:31.841Z,-0.7
2018-02-08T00:35:33.569Z,-0.8
2018-02-08T00:36:35.252Z,-0.8
2018-02-08T00:37:36.952Z,-0.9
2018-02-08T00:38:38.643Z,-0.9
2018-02-08T00:39:40.325Z,-0.9
2018-02-08T00:40:42.044Z,-0.9
2018-02-08T00:41:43.740Z,-0.9
2018-02-08T00:42:45.433Z,-0.9
2018-02-08T00:43:47.153Z,-1.0
2018-02-08T00:44:48.867Z,-1.0
2018-02-08T00:45:50.563Z,-1.1
2018-02-08T00:46:52.324Z,-1.0
2018-02-08T00:47:54.036Z,-1.1
2018-02-08T00:48:55.694Z,-1.1
2018-02-08T00:49:57.414Z,-1.1
2018-02-08T00:50:59.116Z,-1.1
2018-02-08T00:52:00.851Z,-1.1
2018-02-08T00:53:02.504Z,-1.2
2018-02-08T00:54:04.143Z,-1.1
2018-02-08T00:55:05.849Z,-1.1
2018-02-08T00:56:07.507Z,-1.1
2018-02-08T00:57:09.223Z,-1.3
2018-02-08T00:58:10.877Z,-1.1
2018-02-08T00:59:12.522Z,-1.3
2018-02-08T01:00:15.222Z,-1.1
2018-02-08T01:01:17.446Z,-1.3
2018-02-08T01:02:19.626Z,-1.2
2018-02-08T01:03:21.497Z,-1.2
2018-02-08T01:04:23.474Z,-1.2
2018-02-08T01:05:25.102Z,-1.2
2018-02-08T01:06:26.753Z,-1.2
2018-02-08T01:07:28.461Z,-1.2
2018-02-08T01:08:30.101Z,-1.2
2018-02-08T01:09:31.793Z,-1.3
2018-02-08T01:10:33.440Z,-1.3
2018-02-08T01:11:35.164Z,-1.3
2018-02-08T01:12:36.825Z,-1.3
2018-02-08T01:13:38.497Z,-1.4
2018-02-08T01:14:40.193Z,-1.3
2018-02-08T01:15:41.865Z,-1.3
2018-02-08T01:16:43.566Z,-1.3
2018-02-08T01:17:45.245Z,-1.2
2018-02-08T01:18:46.988Z,-1.1
2018-02-08T01:19:48.626Z,-1.1
2018-02-08T01:20:50.248Z,-1.0
2018-02-08T01:21:51.898Z,-0.9
2018-02-08T01:22:53.604Z,-0.9
2018-02-08T01:23:55.235Z,-0.9
2018-02-08T01:24:56.863Z,-1.0
2018-02-08T01:25:58.650Z,-1.0
2018-02-08T01:27:00.333Z,-1.0
2018-02-08T01:28:01.999Z,-1.0
2018-02-08T01:29:03.660Z,-1.0
2018-02-08T01:30:05.319Z,-0.9
2018-02-08T01:31:07.003Z,-0.8
2018-02-08T01:32:08.690Z,-0.7
2018-02-08T01:33:10.424Z,-0.7
2018-02-08T01:34:12.148Z,-0.7
2018-02-08T01:35:13.801Z,-0.8
2018-02-08T01:36:15.503Z,-0.8
2018-02-08T01:37:17.135Z,-0.7
2018-02-08T01:38:18.838Z,-0.8
2018-02-08T01:39:20.517Z,-0.8
2018-02-08T01:40:22.245Z,-0.9
2018-02-08T01:41:23.897Z,-0.8
2018-02-08T01:42:25.543Z,-0.9
2018-02-08T01:43:27.247Z,-1.0
2018-02-08T01:44:29.000Z,-1.0
2018-02-08T01:45:30.641Z,-1.1
2018-02-08T01:46:32.294Z,-1.1
2018-02-08T01:47:33.991Z,-1.1
2018-02-08T01:48:35.710Z,-1.1
2018-02-08T01:49:37.342Z,-1.2
2018-02-08T01:50:38.996Z,-1.2
2018-02-08T01:51:40.721Z,-1.3
2018-02-08T01:52:42.382Z,-1.1
2018-02-08T01:53:44.125Z,-1.1
2018-02-08T01:54:45.783Z,-1.2
2018-02-08T01:55:47.481Z,-1.2
2018-02-08T01:56:49.147Z,-1.2
2018-02-08T01:57:50.858Z,-1.0
2018-02-08T01:58:52.608Z,-1.0
2018-02-08T01:59:54.303Z,-0.9
2018-02-08T02:00:56.009Z,-0.9
2018-02-08T02:01:57.642Z,-0.9
2018-02-08T02:02:59.358Z,-0.9
2018-02-08T02:04:01.089Z,-0.9
2018-02-08T02:05:02.747Z,-0.9
2018-02-08T02:06:04.453Z,-1.1
2018-02-08T02:07:06.100Z,-1.2
2018-02-08T02:08:07.822Z,-1.2
2018-02-08T02:09:09.533Z,-1.2
2018-02-08T02:10:11.283Z,-1.3
2018-02-08T02:11:12.970Z,-1.2
2018-02-08T02:12:14.649Z,-1.3
2018-02-08T02:13:16.370Z,-1.3
2018-02-08T02:14:18.038Z,-1.3
2018-02-08T02:15:19.687Z,-1.4
2018-02-08T02:16:21.411Z,-1.4
2018-02-08T02:17:23.058Z,-1.4
2018-02-08T02:18:24.717Z,-1.5
2018-02-08T02:19:26.345Z,-1.5
2018-02-08T02:20:27.987Z,-1.5
2018-02-08T02:21:29.644Z,-1.5
2018-02-08T02:22:31.345Z,-1.4
2018-02-08T02:23:33.073Z,-1.3
2018-02-08T02:24:34.713Z,-1.4
2018-02-08T02:25:36.389Z,-1.4
2018-02-08T02:26:38.011Z,-1.3
2018-02-08T02:27:39.713Z,-1.2
2018-02-08T02:28:41.346Z,-1.2
2018-02-08T02:29:43.087Z,-1.3
2018-02-08T02:30:44.792Z,-1.1
2018-02-08T02:31:46.402Z,-1.0
2018-02-08T02:32:48.145Z,-1.0
2018-02-08T02:33:49.849Z,-1.0
2018-02-08T02:34:51.552Z,-1.0
2018-02-08T02:35:53.275Z,-1.0
2018-02-08T02:36:54.969Z,-1.1
2018-02-08T02:37:56.622Z,-1.1
2018-02-08T02:38:58.317Z,-1.2
2018-02-08T02:39:59.996Z,-1.1
2018-02-08T02:41:01.687Z,-1.3
2018-02-08T02:42:03.347Z,-1.4
2018-02-08T02:44:15.927Z,-1.4
2018-02-08T02:45:17.539Z,-1.4
2018-02-08T02:46:19.152Z,-1.3
2018-02-08T02:47:20.763Z,-1.2
2018-02-08T02:48:22.376Z,-1.2
2018-02-08T02:49:23.987Z,-1.1
2018-02-08T02:50:25.600Z,-1.1
2018-02-08T02:51:27.218Z,-1.0
2018-02-08T02:52:28.829Z,-1.0
2018-02-08T02:53:30.446Z,-0.9
2018-02-08T02:54:32.056Z,-0.9
2018-02-08T02:55:33.668Z,-0.9
2018-02-08T02:56:35.281Z,-0.9
2018-02-08T02:57:36.897Z,-0.9
2018-02-08T02:58:38.512Z,-1.0
2018-02-08T02:59:40.124Z,-1.1
2018-02-08T03:00:41.735Z,-1.3
2018-02-08T03:01:43.348Z,-1.3
2018-02-08T03:02:44.964Z,-1.3
2018-02-08T03:03:46.615Z,-1.5
2018-02-08T03:04:48.356Z,-1.6
2018-02-08T03:05:50.063Z,-1.6
2018-02-08T03:06:51.757Z,-1.7
2018-02-08T03:07:53.396Z,-1.7
2018-02-08T03:08:55.036Z,-1.7
2018-02-08T03:09:56.668Z,-1.7
2018-02-08T03:10:58.383Z,-1.7
2018-02-08T03:12:00.052Z,-1.7
2018-02-08T03:13:01.787Z,-1.7
2018-02-08T03:14:03.453Z,-1.5
2018-02-08T03:15:05.056Z,-1.4
2018-02-08T03:16:06.760Z,-1.3
2018-02-08T03:17:08.466Z,-1.2
2018-02-08T03:18:10.135Z,-1.2
2018-02-08T03:19:11.851Z,-1.3
2018-02-08T03:20:13.445Z,-1.2
2018-02-08T03:21:15.056Z,-1.2
2018-02-08T03:22:16.672Z,-1.2
2018-02-08T03:23:18.347Z,-1.2
2018-02-08T03:24:20.017Z,-1.2
2018-02-08T03:25:21.679Z,-1.4
2018-02-08T03:26:23.384Z,-1.5
2018-02-08T03:27:25.022Z,-1.5
2018-02-08T03:28:26.721Z,-1.6
2018-02-08T03:29:28.363Z,-1.5
2018-02-08T03:30:30.008Z,-1.6
2018-02-08T03:31:31.621Z,-1.6
2018-02-08T03:32:33.240Z,-1.6
2018-02-08T03:33:34.914Z,-1.7
2018-02-08T03:34:36.580Z,-1.7
2018-02-08T03:35:38.231Z,-1.8
2018-02-08T03:36:39.938Z,-1.8
2018-02-08T03:37:41.592Z,-1.8
2018-02-08T03:38:43.322Z,-1.9
2018-02-08T03:39:44.976Z,-2.0
2018-02-08T03:40:46.697Z,-2.0
2018-02-08T03:41:48.410Z,-2.0
2018-02-08T03:42:50.040Z,-2.0
2018-02-08T03:43:51.684Z,-2.2
2018-02-08T03:44:53.327Z,-2.1
2018-02-08T03:45:55.011Z,-2.1
2018-02-08T03:46:56.696Z,-2.1
2018-02-08T03:47:58.350Z,-2.2
2018-02-08T03:49:00.080Z,-2.2
2018-02-08T03:50:01.734Z,-2.1
2018-02-08T03:51:03.423Z,-2.1
2018-02-08T03:52:05.069Z,-2.1
2018-02-08T03:53:06.741Z,-2.1
2018-02-08T03:54:08.491Z,-2.1
2018-02-08T03:55:10.128Z,-2.0
2018-02-08T03:56:11.741Z,-2.1
2018-02-08T03:57:13.485Z,-2.0
2018-02-08T03:58:15.176Z,-2.1
2018-02-08T03:59:16.811Z,-2.1
2018-02-08T04:00:18.509Z,-2.1
2018-02-08T04:01:20.166Z,-2.1
2018-02-08T04:02:21.867Z,-2.1
2018-02-08T04:03:23.500Z,-2.2
2018-02-08T04:04:25.199Z,-2.2
2018-02-08T04:05:26.860Z,-2.2
2018-02-08T04:06:28.485Z,-2.3
2018-02-08T04:07:30.203Z,-2.3
2018-02-08T04:08:31.874Z,-2.3
2018-02-08T04:09:33.620Z,-2.3
2018-02-08T04:10:35.336Z,-2.3
2018-02-08T04:11:36.981Z,-2.4
2018-02-08T04:12:38.665Z,-2.4
2018-02-08T04:13:40.350Z,-2.3
2018-02-08T04:14:42.015Z,-2.3
2018-02-08T04:15:43.683Z,-2.3
2018-02-08T04:16:45.349Z,-2.2
2018-02-08T04:17:47.071Z,-2.3
2018-02-08T04:18:48.773Z,-2.3
2018-02-08T04:19:50.492Z,-2.3
2018-02-08T04:20:52.130Z,-2.3
2018-02-08T04:21:53.885Z,-2.4
2018-02-08T04:22:55.580Z,-2.3
2018-02-08T04:23:57.246Z,-2.4
2018-02-08T04:24:58.895Z,-2.4
2018-02-08T04:26:00.656Z,-2.2
2018-02-08T04:27:02.471Z,-2.3
2018-02-08T04:28:04.126Z,-2.2
2018-02-08T04:29:05.810Z,-2.2
2018-02-08T04:30:07.487Z,-2.2
2018-02-08T04:31:09.160Z,-2.1
2018-02-08T04:32:10.867Z,-2.0
2018-02-08T04:33:12.500Z,-1.8
2018-02-08T04:34:14.214Z,-1.9
2018-02-08T04:35:15.897Z,-1.9
2018-02-08T04:36:17.598Z,-2.0
2018-02-08T04:37:19.290Z,-2.0
2018-02-08T04:38:21.004Z,-2.0
2018-02-08T04:39:22.637Z,-2.0
2018-02-08T04:40:24.327Z,-2.1
2018-02-08T04:41:25.985Z,-2.1
2018-02-08T04:42:27.651Z,-2.0
2018-02-08T04:43:29.298Z,-2.1
2018-02-08T04:44:30.953Z,-2.1
2018-02-08T04:45:32.706Z,-2.1
2018-02-08T04:46:34.440Z,-2.1
2018-02-08T04:47:36.176Z,-2.0
2018-02-08T04:48:37.902Z,-2.0
2018-02-08T04:49:39.574Z,-2.0
2018-02-08T04:50:41.297Z,-1.9
2018-02-08T04:51:42.997Z,-2.0
2018-02-08T04:52:44.754Z,-2.0
2018-02-08T04:53:46.399Z,-2.1
2018-02-08T04:54:48.075Z,-2.1
2018-02-08T04:55:49.728Z,-2.2
2018-02-08T04:56:51.399Z,-2.2
2018-02-08T04:57:53.057Z,-2.2
2018-02-08T04:58:54.735Z,-2.2
2018-02-08T04:59:56.462Z,-2.3
2018-02-08T05:00:58.158Z,-2.3
2018-02-08T05:01:59.789Z,-2.3
2018-02-08T05:03:01.490Z,-2.4
2018-02-08T05:04:03.248Z,-2.4
2018-02-08T05:05:04.964Z,-2.5
2018-02-08T05:06:06.642Z,-2.5
2018-02-08T05:07:08.320Z,-2.6
2018-02-08T05:08:10.107Z,-2.6
2018-02-08T05:09:11.749Z,-2.6
2018-02-08T05:10:13.442Z,-2.5
2018-02-08T05:11:15.082Z,-2.6
2018-02-08T05:12:16.778Z,-2.6
2018-02-08T05:13:18.458Z,-2.6
2018-02-08T05:14:20.134Z,-2.5
2018-02-08T05:15:22.089Z,-2.5
2018-02-08T05:16:23.764Z,-2.5
2018-02-08T05:17:25.489Z,-2.5
2018-02-08T05:18:27.146Z,-2.5
2018-02-08T05:19:28.818Z,-2.6
2018-02-08T05:20:30.488Z,-2.6
2018-02-08T05:21:32.352Z,-2.6
2018-02-08T05:22:34.056Z,-2.5
2018-02-08T05:23:35.799Z,-2.5
2018-02-08T05:24:37.528Z,-2.6
2018-02-08T05:25:39.354Z,-2.6
2018-02-08T05:26:41.085Z,-2.6
2018-02-08T05:27:42.792Z,-2.6
2018-02-08T05:28:44.548Z,-2.6
2018-02-08T05:29:46.216Z,-2.7
2018-02-08T05:30:47.854Z,-2.6
2018-02-08T05:31:49.568Z,-2.6
2018-02-08T05:32:51.268Z,-2.6
2018-02-08T05:33:53.178Z,-2.7
2018-02-08T05:34:54.870Z,-2.6
2018-02-08T05:35:56.608Z,-2.6
2018-02-08T05:36:58.312Z,-2.7
2018-02-08T05:38:00.696Z,-2.6
2018-02-08T05:39:02.438Z,-2.6
2018-02-08T05:40:04.181Z,-2.6
2018-02-08T05:41:05.923Z,-2.7
2018-02-08T05:42:07.593Z,-2.7
2018-02-08T05:43:09.248Z,-2.7
2018-02-08T05:44:10.931Z,-2.6
2018-02-08T05:45:12.621Z,-2.6
2018-02-08T05:46:14.317Z,-2.6
2018-02-08T05:47:15.925Z,-2.6
2018-02-08T05:48:17.537Z,-2.7
2018-02-08T05:49:19.200Z,-2.6
2018-02-08T05:50:20.910Z,-2.7
2018-02-08T05:51:22.642Z,-2.7
2018-02-08T05:52:24.431Z,-2.8
2018-02-08T05:53:26.199Z,-2.8
2018-02-08T05:54:27.945Z,-2.8
2018-02-08T05:55:29.666Z,-2.7
2018-02-08T05:56:31.375Z,-2.8
2018-02-08T16:37:00.602Z,2.9
2018-02-08T16:38:02.240Z,2.9
2018-02-08T16:39:03.845Z,2.8
2018-02-08T16:40:05.454Z,2.9
2018-02-08T16:41:07.123Z,2.9
2018-02-08T16:42:08.953Z,2.9
2018-02-08T16:43:10.559Z,3.0
2018-02-08T16:44:12.171Z,2.8
2018-02-08T16:45:18.374Z,2.8
2018-02-08T16:46:20.056Z,2.8
2018-02-08T16:47:21.699Z,2.8
2018-02-08T16:48:24.314Z,2.7
2018-02-08T16:49:26.008Z,2.6
2018-02-08T16:50:27.771Z,2.6
2018-02-08T16:51:32.358Z,2.6
2018-02-08T16:52:34.494Z,2.6
2018-02-08T16:53:36.511Z,2.7
2018-02-08T16:54:38.405Z,2.7
2018-02-08T16:55:40.008Z,2.6
2018-02-08T16:56:41.673Z,2.7
2018-02-08T16:57:43.471Z,2.7
2018-02-08T16:58:45.120Z,2.6
2018-02-08T16:59:46.809Z,2.6
2018-02-08T17:00:48.542Z,2.6
2018-02-08T17:01:50.179Z,2.7
2018-02-08T17:02:51.910Z,2.6
2018-02-08T17:03:53.524Z,2.6
2018-02-08T17:04:55.244Z,2.6
2018-02-08T17:05:56.942Z,2.5
2018-02-08T17:06:58.610Z,2.7
2018-02-08T17:08:00.363Z,2.7
2018-02-08T17:09:02.085Z,2.6
2018-02-08T17:10:03.733Z,2.7
2018-02-08T17:11:05.488Z,2.6
2018-02-08T17:12:07.124Z,2.6
2018-02-08T17:13:08.889Z,2.6
2018-02-08T17:14:10.551Z,2.7
2018-02-08T17:15:12.187Z,2.7
2018-02-08T17:16:13.945Z,2.7
2018-02-08T17:17:15.571Z,2.8
2018-02-08T17:18:17.213Z,2.7
2018-02-08T17:19:18.838Z,2.7
2018-02-08T17:20:20.672Z,2.9
2018-02-08T17:22:33.252Z,3.0
2018-02-08T17:23:34.863Z,3.1
2018-02-08T17:24:36.944Z,3.0
2018-02-08T17:25:38.570Z,3.1
2018-02-08T17:26:40.192Z,3.0
2018-02-08T17:27:41.824Z,3.0
2018-02-08T17:28:43.445Z,3.0
2018-02-08T17:29:45.062Z,3.0
2018-02-08T17:30:46.673Z,3.0
2018-02-08T17:31:48.280Z,3.0
2018-02-08T17:32:50.603Z,3.0
2018-02-08T17:33:52.705Z,3.1
2018-02-08T17:34:54.411Z,3.1
2018-02-08T17:35:57.232Z,3.0
2018-02-08T17:36:58.967Z,3.1
2018-02-08T17:38:00.685Z,3.1
2018-02-08T17:39:02.341Z,3.1
2018-02-08T17:40:05.378Z,3.0
2018-02-08T17:41:07.112Z,3.0
2018-02-08T17:42:08.787Z,3.1
2018-02-08T17:43:10.538Z,3.2
2018-02-08T17:44:20.409Z,3.2
2018-02-08T17:45:22.083Z,3.1
2018-02-08T17:46:23.806Z,3.0
2018-02-08T17:47:25.860Z,3.1
2018-02-08T17:48:27.550Z,3.1
2018-02-08T17:49:29.200Z,3.0
2018-02-08T17:50:30.905Z,3.1
2018-02-08T17:51:32.595Z,2.9
2018-02-08T17:52:34.304Z,3.0
2018-02-08T17:53:35.968Z,2.9
2018-02-08T17:54:37.697Z,2.9
2018-02-08T17:55:39.612Z,2.8
2018-02-08T17:56:41.324Z,2.7
2018-02-08T17:57:42.964Z,2.7
2018-02-08T17:58:44.633Z,2.7
2018-02-08T17:59:46.252Z,2.7
2018-02-08T18:00:48.737Z,2.7
2018-02-08T18:01:50.419Z,2.7
2018-02-08T18:02:52.033Z,2.6
2018-02-08T18:03:54.390Z,2.6
2018-02-08T18:04:56.061Z,2.5
2018-02-08T18:05:57.797Z,2.3
2018-02-08T18:07:00.582Z,2.3
2018-02-08T18:08:03.896Z,2.3
2018-02-08T18:09:10.416Z,2.4
2018-02-08T18:10:12.947Z,2.3
2018-02-08T18:11:16.329Z,2.2
2018-02-08T18:12:21.185Z,2.2
2018-02-08T18:13:25.402Z,2.3
2018-02-08T18:14:27.191Z,2.3
2018-02-08T18:15:31.556Z,2.4
2018-02-08T18:16:35.491Z,2.4
2018-02-08T18:17:38.881Z,2.4
2018-02-08T18:18:43.802Z,2.4
2018-02-08T18:19:46.475Z,2.3
2018-02-08T18:20:51.015Z,2.1
2018-02-08T18:21:59.717Z,2.2
2018-02-08T18:23:02.334Z,2.2
2018-02-08T18:24:05.448Z,2.2
2018-02-08T18:25:09.536Z,2.1
2018-02-08T18:26:11.352Z,2.1
2018-02-08T18:27:19.320Z,2.0
2018-02-08T18:28:21.600Z,2.0
2018-02-08T18:29:24.471Z,2.0
2018-02-08T18:30:27.936Z,1.9
2018-02-08T18:31:31.686Z,1.9
2018-02-08T18:32:33.447Z,2.0
2018-02-08T18:33:35.194Z,2.2
2018-02-08T18:34:37.063Z,2.1
2018-02-08T18:36:46.153Z,2.2
2018-02-08T18:37:53.148Z,2.2
2018-02-08T18:38:54.896Z,2.1
2018-02-08T18:39:58.353Z,2.1
2018-02-08T18:41:00.953Z,1.9
2018-02-08T18:42:03.548Z,1.8
2018-02-08T18:43:11.871Z,1.8
2018-02-08T18:44:16.179Z,1.7
2018-02-08T18:45:20.694Z,1.7
2018-02-08T18:46:25.444Z,1.6
2018-02-08T18:47:43.681Z,1.6
2018-02-08T18:48:45.406Z,1.5
2018-02-08T18:49:47.393Z,1.5
2018-02-08T18:50:50.412Z,1.5
2018-02-08T18:51:57.041Z,1.4
2018-02-08T18:52:59.276Z,1.5
2018-02-08T18:54:01.260Z,1.3
2018-02-08T18:55:04.175Z,1.3
2018-02-08T18:56:06.177Z,1.2
2018-02-08T18:57:07.969Z,1.3
2018-02-08T18:58:09.734Z,1.3
2018-02-08T18:59:14.451Z,1.3
2018-02-08T19:00:19.667Z,1.3
2018-02-08T19:01:23.593Z,1.2
2018-02-08T19:02:25.302Z,1.3
2018-02-08T19:03:27.346Z,1.2
2018-02-08T19:04:29.111Z,1.2
2018-02-08T19:05:30.870Z,1.2
2018-02-08T19:06:34.873Z,1.2
2018-02-08T19:07:37.930Z,1.1
2018-02-08T19:08:39.635Z,1.2
2018-02-08T19:09:41.688Z,1.2
2018-02-08T19:10:48.214Z,1.2
2018-02-08T19:11:50.009Z,1.2
2018-02-08T19:12:53.348Z,1.1
2018-02-08T19:13:55.399Z,1.2
2018-02-08T19:14:57.650Z,1.2
2018-02-08T19:15:59.372Z,1.3
2018-02-08T19:17:02.222Z,1.1
2018-02-08T19:18:06.113Z,1.3
2018-02-08T19:19:08.332Z,1.3
2018-02-08T19:20:10.143Z,1.3
2018-02-08T19:21:15.665Z,1.3
2018-02-08T19:22:17.388Z,1.2
2018-02-08T19:23:19.224Z,1.3
2018-02-08T19:24:20.959Z,1.2
2018-02-08T19:25:28.410Z,1.2
2018-02-08T19:26:30.306Z,1.1
2018-02-08T19:27:33.449Z,1.1
2018-02-08T19:28:35.750Z,1.2
2018-02-08T19:29:37.495Z,1.1
2018-02-08T19:30:44.137Z,1.2
2018-02-08T19:31:46.628Z,1.3
2018-02-08T19:32:48.432Z,1.2
2018-02-08T19:33:50.204Z,1.3
2018-02-08T19:34:53.470Z,1.3
2018-02-08T19:35:56.149Z,1.2
2018-02-08T19:36:57.933Z,1.1
2018-02-08T19:38:05.526Z,1.1
2018-02-08T19:39:07.396Z,1.2
2018-02-08T19:40:10.609Z,1.2
2018-02-08T19:41:16.566Z,1.1
2018-02-08T19:42:19.200Z,1.0
2018-02-08T19:43:21.660Z,1.0
2018-02-08T19:44:24.268Z,1.0
2018-02-08T19:45:26.205Z,1.0
2018-02-08T19:46:30.878Z,1.2
2018-02-08T19:47:33.507Z,1.2
2018-02-08T19:48:35.377Z,1.1
2018-02-08T19:49:38.862Z,1.1
2018-02-08T19:50:49.463Z,1.0
2018-02-08T19:51:51.996Z,1.0
2018-02-08T19:52:57.452Z,1.0
2018-02-08T19:53:59.244Z,1.0
2018-02-08T19:55:00.983Z,1.0
2018-02-08T19:56:06.524Z,0.9
2018-02-08T19:57:08.932Z,0.9
2018-02-08T19:58:14.497Z,0.9
2018-02-08T19:59:17.444Z,0.9
2018-02-08T20:00:20.628Z,1.0
2018-02-08T20:01:25.694Z,1.0
2018-02-08T20:02:28.655Z,1.0
2018-02-08T20:03:30.408Z,1.0
2018-02-08T20:04:35.160Z,1.1
2018-02-08T20:05:38.338Z,1.1
2018-02-08T20:06:40.679Z,1.2
2018-02-08T20:07:44.207Z,1.2
2018-02-08T20:08:48.032Z,1.3
2018-02-08T20:09:49.120Z,1.2
2018-02-08T20:10:53.195Z,1.3
2018-02-08T20:11:54.971Z,1.3
2018-02-08T20:12:56.699Z,1.3
2018-02-08T20:13:59.088Z,1.2
2018-02-08T20:15:00.862Z,1.1
2018-02-08T20:16:02.691Z,1.1
2018-02-08T20:17:04.515Z,1.0
2018-02-08T20:18:06.313Z,1.0
2018-02-08T20:19:08.173Z,0.9
2018-02-08T20:20:09.914Z,0.9
2018-02-08T20:21:16.231Z,0.9
2018-02-08T20:22:18.878Z,0.7
2018-02-08T20:23:20.851Z,0.8
2018-02-08T20:24:26.117Z,0.7
2018-02-08T20:25:29.270Z,0.8
2018-02-08T20:26:32.238Z,0.6
2018-02-08T20:27:36.522Z,0.6
2018-02-08T20:28:38.897Z,0.6
2018-02-08T20:29:40.646Z,0.6
2018-02-08T20:30:44.201Z,0.5
2018-02-08T20:31:46.069Z,0.5
2018-02-08T20:32:49.154Z,0.6
2018-02-08T20:33:51.940Z,0.6
2018-02-08T20:34:58.555Z,0.6
2018-02-08T20:36:00.360Z,0.6
2018-02-08T20:37:02.707Z,0.5
2018-02-08T20:38:06.103Z,0.4
2018-02-08T20:39:07.925Z,0.5
2018-02-08T20:40:09.649Z,0.4
2018-02-08T20:57:21.576Z,0.3
2018-02-08T20:58:22.981Z,0.3
2018-02-08T20:59:24.688Z,0.2
2018-02-08T21:00:26.401Z,0.2
2018-02-08T21:01:31.071Z,0.2
2018-02-08T21:02:32.761Z,0.1
2018-02-08T21:03:34.516Z,0.1
2018-02-08T21:04:36.206Z,0.1
2018-02-08T21:05:37.954Z,0.1
2018-02-08T21:06:39.895Z,0.1
2018-02-08T21:07:41.571Z,0.1
2018-02-08T21:08:43.282Z,0.1
2018-02-08T21:09:44.986Z,0.0
2018-02-08T21:10:46.678Z,0.1
2018-02-08T21:11:48.403Z,-0.0
2018-02-08T21:12:49.991Z,0.0
2018-02-08T21:13:52.159Z,0.1
2018-02-08T21:14:54.797Z,0.2
2018-02-08T21:15:57.608Z,0.0
2018-02-08T21:17:00.180Z,0.0
2018-02-08T21:18:02.382Z,0.0
2018-02-08T21:19:04.136Z,0.0
2018-02-08T21:20:05.969Z,-0.1
2018-02-08T21:21:09.291Z,-0.0
2018-02-08T21:22:12.278Z,0.0
2018-02-08T21:23:14.169Z,-0.1
2018-02-08T21:24:18.287Z,-0.1
2018-02-08T21:25:20.046Z,-0.1
2018-02-08T21:26:21.953Z,-0.1
2018-02-08T21:27:23.918Z,-0.0
2018-02-08T21:28:30.834Z,-0.1
2018-02-08T21:29:33.942Z,-0.1
2018-02-08T21:30:36.792Z,-0.1
2018-02-08T21:31:38.710Z,-0.1
2018-02-08T21:32:41.001Z,-0.0
2018-02-08T21:33:42.769Z,0.1
2018-02-08T21:34:44.889Z,0.0
2018-02-08T21:35:46.879Z,0.0
2018-02-08T21:36:48.599Z,0.0
2018-02-08T21:37:50.753Z,0.1
2018-02-08T21:38:52.442Z,0.1
2018-02-08T21:39:54.997Z,0.1
2018-02-08T21:40:56.656Z,0.1
2018-02-08T21:41:58.448Z,0.1
2018-02-08T21:43:00.166Z,0.1
2018-02-08T21:44:01.903Z,0.1
2018-02-08T21:45:03.660Z,0.0
2018-02-08T21:46:05.647Z,0.1
2018-02-08T21:47:07.872Z,0.0
2018-02-08T21:48:09.659Z,0.1
2018-02-08T21:49:11.343Z,0.1
2018-02-08T21:50:13.074Z,0.0
2018-02-08T21:51:14.801Z,-0.0
2018-02-08T21:52:16.525Z,-0.0
2018-02-08T21:53:18.207Z,0.0
2018-02-08T21:54:19.926Z,0.0
2018-02-08T21:55:21.631Z,0.0
2018-02-08T21:56:25.169Z,-0.1
2018-02-08T21:57:26.978Z,-0.0
2018-02-08T21:58:28.727Z,-0.1
2018-02-08T21:59:30.444Z,-0.1
2018-02-08T22:00:33.005Z,-0.1
2018-02-08T22:01:34.715Z,-0.1
2018-02-08T22:02:36.466Z,-0.2
2018-02-08T22:03:38.567Z,-0.1
2018-02-08T22:04:40.247Z,-0.2
2018-02-08T22:05:42.017Z,-0.1
2018-02-08T22:06:44.064Z,-0.2
2018-02-08T22:07:46.186Z,-0.1
2018-02-08T22:08:48.432Z,-0.2
2018-02-08T22:09:50.586Z,-0.1
2018-02-08T22:10:52.291Z,-0.1
2018-02-08T22:11:53.969Z,-0.2
2018-02-08T22:12:55.750Z,-0.2
2018-02-08T22:13:57.450Z,-0.2
2018-02-08T22:14:59.148Z,-0.1
2018-02-08T22:16:00.872Z,-0.2
2018-02-08T22:17:02.901Z,-0.1
2018-02-08T22:18:04.588Z,-0.2
2018-02-08T22:19:06.750Z,-0.2
2018-02-08T22:20:08.889Z,-0.2
2018-02-08T22:21:10.998Z,-0.2
2018-02-08T22:22:12.718Z,-0.1
2018-02-08T22:23:14.406Z,-0.1
2018-02-08T22:24:16.583Z,-0.2
2018-02-08T22:25:18.673Z,-0.1
2018-02-08T22:26:20.886Z,-0.1
2018-02-08T22:27:23.003Z,-0.2
2018-02-08T22:28:25.129Z,-0.1
2018-02-08T22:29:27.238Z,-0.1
2018-02-08T22:31:39.957Z,-0.1
2018-02-08T22:32:41.693Z,-0.1
2018-02-08T22:33:43.308Z,-0.1
2018-02-08T22:34:44.923Z,-0.1
2018-02-08T22:35:46.542Z,-0.1
2018-02-08T22:36:48.200Z,-0.1
2018-02-08T22:37:49.836Z,-0.1
2018-02-08T22:38:51.515Z,-0.1
2018-02-08T22:39:53.316Z,-0.1
2018-02-08T22:40:55.447Z,-0.1
2018-02-08T22:41:57.189Z,-0.3
2018-02-08T22:42:58.960Z,-0.3
2018-02-08T22:44:00.644Z,-0.3
2018-02-08T22:45:02.369Z,-0.3
2018-02-08T22:46:04.066Z,-0.3
2018-02-08T22:47:06.232Z,-0.4
2018-02-08T22:48:07.944Z,-0.4
2018-02-08T22:49:10.104Z,-0.3
2018-02-08T22:50:11.829Z,-0.3
2018-02-08T22:51:13.550Z,-0.3
2018-02-08T22:52:15.211Z,-0.4
2018-02-08T22:53:16.968Z,-0.3
2018-02-08T22:54:18.688Z,-0.3
2018-02-08T22:55:20.380Z,-0.4
2018-02-08T22:56:22.131Z,-0.3
2018-02-08T22:57:23.850Z,-0.4
2018-02-08T22:58:25.917Z,-0.4
2018-02-08T22:59:27.972Z,-0.4
2018-02-08T23:00:29.704Z,-0.4
2018-02-08T23:01:31.454Z,-0.4
2018-02-08T23:02:33.202Z,-0.3
2018-02-08T23:03:35.157Z,-0.5
2018-02-08T23:04:37.393Z,-0.4
2018-02-08T23:05:39.418Z,-0.4
2018-02-08T23:06:41.496Z,-0.4
2018-02-08T23:07:43.301Z,-0.5
2018-02-08T23:08:45.028Z,-0.5
2018-02-08T23:09:46.742Z,-0.4
2018-02-08T23:10:48.456Z,-0.4
2018-02-08T23:11:50.184Z,-0.4
2018-02-08T23:12:52.276Z,-0.3
2018-02-08T23:13:54.326Z,-0.3
2018-02-08T23:14:56.033Z,-0.1
2018-02-08T23:15:57.811Z,-0.1
2018-02-08T23:16:59.610Z,-0.1
2018-02-08T23:18:01.298Z,-0.1
2018-02-08T23:19:03.355Z,0.0
2018-02-08T23:20:05.542Z,-0.0
2018-02-08T23:21:07.227Z,0.1
2018-02-08T23:22:09.366Z,0.2
2018-02-08T23:23:11.524Z,0.2
2018-02-08T23:24:13.584Z,0.3
2018-02-08T23:25:15.721Z,0.3
2018-02-08T23:26:17.956Z,0.3
2018-02-08T23:27:20.057Z,0.3
2018-02-08T23:28:21.746Z,0.2
2018-02-08T23:29:23.882Z,0.2
2018-02-08T23:30:25.580Z,0.1
2018-02-08T23:31:27.308Z,0.0
2018-02-08T23:32:29.332Z,0.0
2018-02-08T23:33:31.423Z,-0.1
2018-02-08T23:34:33.118Z,-0.1
2018-02-08T23:35:34.845Z,-0.1
2018-02-08T23:36:36.589Z,-0.3
2018-02-08T23:37:38.321Z,-0.3
2018-02-08T23:38:40.046Z,-0.4
2018-02-08T23:39:41.766Z,-0.3
2018-02-08T23:40:43.803Z,-0.4
2018-02-08T23:41:45.518Z,-0.4
2018-02-08T23:42:47.603Z,-0.4
2018-02-08T23:43:49.764Z,-0.4
2018-02-08T23:44:51.471Z,-0.4
2018-02-08T23:45:53.216Z,-0.5
2018-02-08T23:46:54.962Z,-0.5
2018-02-08T23:47:57.079Z,-0.5
2018-02-08T23:48:58.842Z,-0.6
2018-02-08T23:50:00.731Z,-0.5
2018-02-08T23:51:02.803Z,-0.5
2018-02-08T23:52:04.454Z,-0.6
2018-02-08T23:53:06.163Z,-0.6
2018-02-08T23:54:07.824Z,-0.6
2018-02-08T23:55:09.894Z,-0.7
2018-02-08T23:56:11.634Z,-0.6
2018-02-08T23:57:13.339Z,-0.7
2018-02-08T23:58:15.050Z,-0.6
2018-02-08T23:59:16.950Z,-0.5
